M/V Le Conte — WZE4270 — position and weather

sailwx.info

Track history (hours):
 
Tides and Currents Weather Stations Pressure Air Temp Water Temp Dewpoint Dewpoint Depression Visibility Wind Speed Wind Dir Waves Ship Positions

M/V Le Conte

Owner: ALASKA MARINE HIGHWAY SYSTEM, JUNEAU, AK. More information available from US FCC via Universal Licensing System and Coast Guard Vessel Documentation Center.

Last reported at 2018-Nov-08 00:37 UTC. Time now 2018-Dec-12 14:47 UTC.
Position N 58°10' W 135°24'.
Warning: this ship's position is 34 days out of date.

Type: Passenger vessel. MMSI: 338761000.

Date/timePositionNaut miles runAvg speedWind from/ knotsBaromVisibWave heightAir tempDewpointWater temp
2018-Nov-08 00:37N 58°10' W 135°24'315.8
2018-Nov-08 00:25N 58°08' W 135°28'3 1.8
2018-Nov-07 22:39N 58°11' W 135°27'214.5
2018-Nov-07 22:31N 58°13' W 135°30'714.6
2018-Nov-07 22:02N 58°17' W 135°40'612.8
2018-Nov-07 21:32N 58°23' W 135°44'0 0.3
2018-Nov-07 21:02N 58°23' W 135°44'0 0.0
2018-Nov-07 20:32N 58°23' W 135°44'2 3.7
2018-Nov-07 20:02N 58°22' W 135°45'815.6
2018-Nov-07 19:31N 58°16' W 135°34'8 0.2
2018-Nov-06 00:19N 58°13' W 135°19'1215.1
2018-Nov-05 23:30N 58°18' W 135°41'613.0
2018-Nov-05 23:03N 58°23' W 135°44'0 3.0
2018-Nov-05 22:58N 58°23' W 135°44'0 0.0
2018-Nov-05 22:28N 58°23' W 135°44'0 0.0
2018-Nov-05 22:01N 58°23' W 135°44'0 0.0
2018-Nov-05 21:58N 58°23' W 135°44'2 5.1
2018-Nov-05 21:30N 58°21' W 135°45'1016.4
2018-Nov-05 20:54N 58°14' W 135°31'6 3.2
2018-Nov-05 19:02N 58°08' W 135°28'4 0.1
2018-Nov-04 03:01N 58°09' W 135°21'115.7
2018-Nov-04 02:57N 58°10' W 135°23'3 3.0
2018-Nov-04 01:54N 58°08' W 135°28'  
2018-Oct-31 23:21N 58°13' W 135°21'515.7
2018-Oct-31 23:01N 58°15' W 135°30'215.1
2018-Oct-31 22:53N 58°16' W 135°33'615.1
2018-Oct-31 22:30N 58°19' W 135°43'4 9.1
2018-Oct-31 22:03N 58°23' W 135°44'0 1.4
2018-Oct-31 21:59N 58°23' W 135°44'0 0.0
2018-Oct-31 21:26N 58°23' W 135°44'0 0.0
2018-Oct-31 21:03N 58°23' W 135°44'0 0.0
2018-Oct-31 21:00N 58°23' W 135°44'3 6.2
2018-Oct-31 20:31N 58°20' W 135°43'715.9
2018-Oct-31 20:03N 58°15' W 135°34'4 0.1
2018-Oct-29 21:27N 58°12' W 135°29'716.4
2018-Oct-29 21:03N 58°17' W 135°38'115.8
2018-Oct-29 21:00N 58°18' W 135°39'612.7
2018-Oct-29 20:31N 58°23' W 135°44'0 0.0
2018-Oct-29 20:02N 58°23' W 135°44'0 0.0
2018-Oct-29 19:59N 58°23' W 135°44'0 0.0
2018-Oct-29 19:29N 58°23' W 135°44'0 0.0
2018-Oct-29 18:59N 58°23' W 135°44'2 5.1
2018-Oct-29 18:30N 58°21' W 135°44'715.3
2018-Oct-29 18:03N 58°16' W 135°33'116.1
2018-Oct-29 17:58N 58°16' W 135°31'  
Track history (hours):
 
Tides and Currents Weather Stations Pressure Air Temp Water Temp Dewpoint Dewpoint Depression Visibility Wind Speed Wind Dir Waves Ship Positions

M/V Le Conte

Owner: ALASKA MARINE HIGHWAY SYSTEM, JUNEAU, AK. More information available from US FCC via Universal Licensing System and Coast Guard Vessel Documentation Center.

Last reported at 2018-Nov-08 00:37 UTC. Time now 2018-Dec-12 14:47 UTC.
Position N 58°10' W 135°24'.
Warning: this ship's position is 34 days out of date.

Type: Passenger vessel. MMSI: 338761000.

Date/timePositionNaut miles runAvg speedWind from/ knotsBaromVisibWave heightAir tempDewpointWater temp
2018-Nov-08 00:37N 58°10' W 135°24'315.8
2018-Nov-08 00:25N 58°08' W 135°28'3 1.8
2018-Nov-07 22:39N 58°11' W 135°27'214.5
2018-Nov-07 22:31N 58°13' W 135°30'714.6
2018-Nov-07 22:02N 58°17' W 135°40'612.8
2018-Nov-07 21:32N 58°23' W 135°44'0 0.3
2018-Nov-07 21:02N 58°23' W 135°44'0 0.0
2018-Nov-07 20:32N 58°23' W 135°44'2 3.7
2018-Nov-07 20:02N 58°22' W 135°45'815.6
2018-Nov-07 19:31N 58°16' W 135°34'8 0.2
2018-Nov-06 00:19N 58°13' W 135°19'1215.1
2018-Nov-05 23:30N 58°18' W 135°41'613.0
2018-Nov-05 23:03N 58°23' W 135°44'0 3.0
2018-Nov-05 22:58N 58°23' W 135°44'0 0.0
2018-Nov-05 22:28N 58°23' W 135°44'0 0.0
2018-Nov-05 22:01N 58°23' W 135°44'0 0.0
2018-Nov-05 21:58N 58°23' W 135°44'2 5.1
2018-Nov-05 21:30N 58°21' W 135°45'1016.4
2018-Nov-05 20:54N 58°14' W 135°31'6 3.2
2018-Nov-05 19:02N 58°08' W 135°28'4 0.1
2018-Nov-04 03:01N 58°09' W 135°21'115.7
2018-Nov-04 02:57N 58°10' W 135°23'3 3.0
2018-Nov-04 01:54N 58°08' W 135°28'  
2018-Oct-31 23:21N 58°13' W 135°21'515.7
2018-Oct-31 23:01N 58°15' W 135°30'215.1
2018-Oct-31 22:53N 58°16' W 135°33'615.1
2018-Oct-31 22:30N 58°19' W 135°43'4 9.1
2018-Oct-31 22:03N 58°23' W 135°44'0 1.4
2018-Oct-31 21:59N 58°23' W 135°44'0 0.0
2018-Oct-31 21:26N 58°23' W 135°44'0 0.0
2018-Oct-31 21:03N 58°23' W 135°44'0 0.0
2018-Oct-31 21:00N 58°23' W 135°44'3 6.2
2018-Oct-31 20:31N 58°20' W 135°43'715.9
2018-Oct-31 20:03N 58°15' W 135°34'4 0.1
2018-Oct-29 21:27N 58°12' W 135°29'716.4
2018-Oct-29 21:03N 58°17' W 135°38'115.8
2018-Oct-29 21:00N 58°18' W 135°39'612.7
2018-Oct-29 20:31N 58°23' W 135°44'0 0.0
2018-Oct-29 20:02N 58°23' W 135°44'0 0.0
2018-Oct-29 19:59N 58°23' W 135°44'0 0.0
2018-Oct-29 19:29N 58°23' W 135°44'0 0.0
2018-Oct-29 18:59N 58°23' W 135°44'2 5.1
2018-Oct-29 18:30N 58°21' W 135°44'715.3
2018-Oct-29 18:03N 58°16' W 135°33'116.1
2018-Oct-29 17:58N 58°16' W 135°31'  

Dump ship's entire track history